Terminal Aerodrome Forecast
Issued by NWS

Current Version | Previous Version | Text Only | Print | Product List | Glossary On
Versions: 1 2 3 4 5 6 7 8 9 10 11 12 13 14 15 16 17 18 19 20
000
FTUS43 KLSX 242000 AAC
TAFUIN
TAF AMD
KUIN 242049Z 2421/2518 17018G28KT P6SM VCTS SCT040CB BKN120
      TEMPO 2421/2423 4SM -TSRA BKN040CB
     FM250200 15014KT 5SM -SHRA VCTS BKN030CB
     FM250800 19012KT P6SM BKN020
     FM251500 22010KT P6SM SCT025=

USA.gov is the U.S. government's official web portal to all federal, state and local government web resources and services.